sensor_id;sensor_type;location;lat;lon;timestamp;pressure;altitude;pressure_sealevel;temperature;humidity
11049;BME280;5577;42.706;23.160;2022-07-23T00:00:13;94405.22;;;19.95;100.00
11049;BME280;5577;42.706;23.160;2022-07-23T00:02:58;94406.47;;;19.83;100.00
11049;BME280;5577;42.706;23.160;2022-07-23T00:05:42;94408.81;;;19.77;100.00
11049;BME280;5577;42.706;23.160;2022-07-23T00:08:25;94407.34;;;19.73;100.00
11049;BME280;5577;42.706;23.160;2022-07-23T00:11:10;94403.50;;;19.74;100.00
11049;BME280;5577;42.706;23.160;2022-07-23T00:13:54;94411.16;;;19.72;100.00
11049;BME280;5577;42.706;23.160;2022-07-23T00:16:38;94417.81;;;19.60;100.00
11049;BME280;5577;42.706;23.160;2022-07-23T00:19:22;94425.53;;;19.51;100.00
11049;BME280;5577;42.706;23.160;2022-07-23T00:22:06;94419.41;;;19.51;100.00
11049;BME280;5577;42.706;23.160;2022-07-23T00:24:50;94420.59;;;19.46;100.00
11049;BME280;5577;42.706;23.160;2022-07-23T00:27:34;94418.69;;;19.43;100.00
11049;BME280;5577;42.706;23.160;2022-07-23T00:30:18;94428.75;;;19.32;100.00
11049;BME280;5577;42.706;23.160;2022-07-23T00:33:05;94388.94;;;19.13;100.00
11049;BME280;5577;42.706;23.160;2022-07-23T00:35:49;94404.66;;;19.18;100.00
11049;BME280;5577;42.706;23.160;2022-07-23T00:38:33;94424.53;;;19.24;100.00
11049;BME280;5577;42.706;23.160;2022-07-23T00:41:17;94415.72;;;19.24;100.00
11049;BME280;5577;42.706;23.160;2022-07-23T00:44:18;94409.63;;;19.20;100.00
11049;BME280;5577;42.706;23.160;2022-07-23T00:47:03;94412.28;;;19.23;100.00
11049;BME280;5577;42.706;23.160;2022-07-23T00:49:49;94419.19;;;19.21;100.00
11049;BME280;5577;42.706;23.160;2022-07-23T00:52:33;94417.28;;;19.18;100.00
11049;BME280;5577;42.706;23.160;2022-07-23T00:55:18;94418.09;;;19.11;100.00
11049;BME280;5577;42.706;23.160;2022-07-23T00:58:02;94414.66;;;19.07;100.00
11049;BME280;5577;42.706;23.160;2022-07-23T01:00:47;94415.03;;;19.13;100.00
11049;BME280;5577;42.706;23.160;2022-07-23T01:03:31;94414.22;;;19.16;100.00
11049;BME280;5577;42.706;23.160;2022-07-23T01:06:15;94417.28;;;19.18;100.00
11049;BME280;5577;42.706;23.160;2022-07-23T01:08:59;94416.47;;;19.24;100.00
11049;BME280;5577;42.706;23.160;2022-07-23T01:11:43;94413.03;;;19.27;100.00
11049;BME280;5577;42.706;23.160;2022-07-23T01:14:27;94423.09;;;19.13;100.00
11049;BME280;5577;42.706;23.160;2022-07-23T01:17:10;94421.56;;;19.05;100.00
11049;BME280;5577;42.706;23.160;2022-07-23T01:19:55;94415.47;;;19.04;100.00
11049;BME280;5577;42.706;23.160;2022-07-23T01:22:39;94415.84;;;19.03;100.00
11049;BME280;5577;42.706;23.160;2022-07-23T01:25:24;94403.22;;;18.96;100.00
11049;BME280;5577;42.706;23.160;2022-07-23T01:28:08;94408.19;;;18.98;100.00
11049;BME280;5577;42.706;23.160;2022-07-23T01:30:52;94407.44;;;18.97;100.00
11049;BME280;5577;42.706;23.160;2022-07-23T01:33:36;94411.69;;;18.88;100.00
11049;BME280;5577;42.706;23.160;2022-07-23T01:36:20;94402.19;;;18.73;100.00
11049;BME280;5577;42.706;23.160;2022-07-23T01:39:06;94417.94;;;18.64;100.00
11049;BME280;5577;42.706;23.160;2022-07-23T01:41:50;94412.22;;;18.55;100.00
11049;BME280;5577;42.706;23.160;2022-07-23T01:44:34;94412.22;;;18.51;100.00
11049;BME280;5577;42.706;23.160;2022-07-23T01:47:18;94403.44;;;18.51;100.00
11049;BME280;5577;42.706;23.160;2022-07-23T01:50:02;94413.03;;;18.41;100.00
11049;BME280;5577;42.706;23.160;2022-07-23T01:52:47;94403.84;;;18.39;100.00
11049;BME280;5577;42.706;23.160;2022-07-23T01:55:31;94407.28;;;18.46;100.00
11049;BME280;5577;42.706;23.160;2022-07-23T01:58:15;94409.56;;;18.44;100.00
11049;BME280;5577;42.706;23.160;2022-07-23T02:01:00;94426.03;;;18.46;100.00
11049;BME280;5577;42.706;23.160;2022-07-23T02:03:44;94417.25;;;18.42;100.00
11049;BME280;5577;42.706;23.160;2022-07-23T02:06:28;94408.81;;;18.44;100.00
11049;BME280;5577;42.706;23.160;2022-07-23T02:09:12;94418.00;;;18.32;100.00
11049;BME280;5577;42.706;23.160;2022-07-23T02:11:56;94412.28;;;18.23;100.00
11049;BME280;5577;42.706;23.160;2022-07-23T02:14:40;94413.47;;;18.08;100.00
11049;BME280;5577;42.706;23.160;2022-07-23T02:17:24;94419.22;;;18.10;100.00
11049;BME280;5577;42.706;23.160;2022-07-23T02:20:09;94416.16;;;18.12;100.00
11049;BME280;5577;42.706;23.160;2022-07-23T02:22:53;94411.94;;;18.00;100.00
11049;BME280;5577;42.706;23.160;2022-07-23T02:25:37;94416.19;;;17.98;100.00
11049;BME280;5577;42.706;23.160;2022-07-23T02:28:22;94417.72;;;17.95;100.00
11049;BME280;5577;42.706;23.160;2022-07-23T02:31:06;94415.03;;;17.92;100.00
11049;BME280;5577;42.706;23.160;2022-07-23T02:33:50;94419.63;;;17.95;100.00
11049;BME280;5577;42.706;23.160;2022-07-23T02:36:34;94420.00;;;17.90;100.00
11049;BME280;5577;42.706;23.160;2022-07-23T02:39:18;94416.16;;;17.87;100.00
11049;BME280;5577;42.706;23.160;2022-07-23T02:42:02;94414.28;;;17.88;100.00
11049;BME280;5577;42.706;23.160;2022-07-23T02:44:46;94420.41;;;17.81;100.00
11049;BME280;5577;42.706;23.160;2022-07-23T02:47:30;94423.84;;;17.75;100.00
11049;BME280;5577;42.706;23.160;2022-07-23T02:50:16;94416.19;;;17.70;100.00
11049;BME280;5577;42.706;23.160;2022-07-23T02:53:00;94428.81;;;17.69;100.00
11049;BME280;5577;42.706;23.160;2022-07-23T02:55:44;94421.91;;;17.65;100.00
11049;BME280;5577;42.706;23.160;2022-07-23T02:58:28;94434.94;;;17.56;100.00
11049;BME280;5577;42.706;23.160;2022-07-23T03:01:12;94434.91;;;17.59;100.00
11049;BME280;5577;42.706;23.160;2022-07-23T03:03:56;94437.59;;;17.59;100.00
11049;BME280;5577;42.706;23.160;2022-07-23T03:06:40;94443.72;;;17.53;100.00
11049;BME280;5577;42.706;23.160;2022-07-23T03:09:23;94445.63;;;17.52;100.00
11049;BME280;5577;42.706;23.160;2022-07-23T03:12:08;94443.31;;;17.51;100.00
11049;BME280;5577;42.706;23.160;2022-07-23T03:14:52;94428.75;;;17.41;100.00
11049;BME280;5577;42.706;23.160;2022-07-23T03:17:36;94455.59;;;17.52;100.00
11049;BME280;5577;42.706;23.160;2022-07-23T03:20:20;94450.97;;;17.59;100.00
11049;BME280;5577;42.706;23.160;2022-07-23T03:23:03;94421.13;;;17.29;100.00
11049;BME280;5577;42.706;23.160;2022-07-23T03:25:47;94440.22;;;17.38;100.00
11049;BME280;5577;42.706;23.160;2022-07-23T03:28:32;94455.19;;;17.43;100.00
11049;BME280;5577;42.706;23.160;2022-07-23T03:31:16;94458.22;;;17.41;100.00
11049;BME280;5577;42.706;23.160;2022-07-23T03:34:00;94463.59;;;17.55;100.00
11049;BME280;5577;42.706;23.160;2022-07-23T03:36:44;94465.13;;;17.63;100.00
11049;BME280;5577;42.706;23.160;2022-07-23T03:39:28;94467.44;;;17.68;100.00
11049;BME280;5577;42.706;23.160;2022-07-23T03:42:12;94460.16;;;17.58;100.00
11049;BME280;5577;42.706;23.160;2022-07-23T03:44:56;94465.50;;;17.62;100.00
11049;BME280;5577;42.706;23.160;2022-07-23T03:47:40;94462.84;;;17.65;100.00
11049;BME280;5577;42.706;23.160;2022-07-23T03:50:24;94458.28;;;17.66;100.00
11049;BME280;5577;42.706;23.160;2022-07-23T03:53:08;94462.47;;;17.63;100.00
11049;BME280;5577;42.706;23.160;2022-07-23T03:55:52;94463.25;;;17.71;100.00
11049;BME280;5577;42.706;23.160;2022-07-23T03:58:36;94469.38;;;17.85;100.00
11049;BME280;5577;42.706;23.160;2022-07-23T04:01:20;94464.38;;;17.87;100.00
11049;BME280;5577;42.706;23.160;2022-07-23T04:04:04;94465.91;;;17.99;100.00
11049;BME280;5577;42.706;23.160;2022-07-23T04:06:48;94457.88;;;18.13;100.00
11049;BME280;5577;42.706;23.160;2022-07-23T04:09:32;94459.75;;;18.26;100.00
11049;BME280;5577;42.706;23.160;2022-07-23T04:12:16;94454.38;;;18.40;100.00
11049;BME280;5577;42.706;23.160;2022-07-23T04:15:00;94459.00;;;18.47;100.00
11049;BME280;5577;42.706;23.160;2022-07-23T04:17:44;94463.16;;;18.62;100.00
11049;BME280;5577;42.706;23.160;2022-07-23T04:20:30;94466.91;;;18.78;100.00
11049;BME280;5577;42.706;23.160;2022-07-23T04:23:14;94466.13;;;18.92;100.00
11049;BME280;5577;42.706;23.160;2022-07-23T04:25:58;94466.84;;;19.03;100.00
11049;BME280;5577;42.706;23.160;2022-07-23T04:28:42;94475.19;;;19.19;100.00
11049;BME280;5577;42.706;23.160;2022-07-23T04:31:25;94475.50;;;19.35;100.00
11049;BME280;5577;42.706;23.160;2022-07-23T04:34:09;94479.31;;;19.37;100.00
11049;BME280;5577;42.706;23.160;2022-07-23T04:36:53;94469.72;;;19.40;100.00
11049;BME280;5577;42.706;23.160;2022-07-23T04:39:37;94478.91;;;19.42;100.00
11049;BME280;5577;42.706;23.160;2022-07-23T04:42:21;94476.94;;;19.53;100.00
11049;BME280;5577;42.706;23.160;2022-07-23T04:45:06;94473.44;;;19.60;100.00
11049;BME280;5577;42.706;23.160;2022-07-23T04:47:50;94476.03;;;19.74;100.00
11049;BME280;5577;42.706;23.160;2022-07-23T04:50:34;94482.13;;;19.82;100.00
11049;BME280;5577;42.706;23.160;2022-07-23T04:53:19;94481.53;;;20.04;100.00
11049;BME280;5577;42.706;23.160;2022-07-23T04:56:04;94478.81;;;20.15;100.00
11049;BME280;5577;42.706;23.160;2022-07-23T04:58:48;94477.50;;;20.33;100.00
11049;BME280;5577;42.706;23.160;2022-07-23T05:01:31;94476.63;;;20.43;100.00
11049;BME280;5577;42.706;23.160;2022-07-23T05:04:15;94476.50;;;20.54;100.00
11049;BME280;5577;42.706;23.160;2022-07-23T05:06:59;94472.09;;;20.70;100.00
11049;BME280;5577;42.706;23.160;2022-07-23T05:09:43;94475.00;;;20.86;100.00
11049;BME280;5577;42.706;23.160;2022-07-23T05:12:28;94478.31;;;21.01;100.00
11049;BME280;5577;42.706;23.160;2022-07-23T05:15:11;94481.66;;;21.12;100.00
11049;BME280;5577;42.706;23.160;2022-07-23T05:17:55;94480.34;;;21.23;100.00
11049;BME280;5577;42.706;23.160;2022-07-23T05:20:39;94481.69;;;21.38;100.00
11049;BME280;5577;42.706;23.160;2022-07-23T05:23:24;94485.41;;;21.48;100.00
11049;BME280;5577;42.706;23.160;2022-07-23T05:26:08;94492.88;;;21.63;100.00
11049;BME280;5577;42.706;23.160;2022-07-23T05:28:52;94489.31;;;21.70;100.00
11049;BME280;5577;42.706;23.160;2022-07-23T05:31:36;94486.84;;;21.82;100.00
11049;BME280;5577;42.706;23.160;2022-07-23T05:34:20;94496.56;;;22.03;100.00
11049;BME280;5577;42.706;23.160;2022-07-23T05:37:04;94478.03;;;22.05;100.00
11049;BME280;5577;42.706;23.160;2022-07-23T05:39:49;94492.69;;;22.27;100.00
11049;BME280;5577;42.706;23.160;2022-07-23T05:42:38;94485.25;;;22.34;100.00
11049;BME280;5577;42.706;23.160;2022-07-23T05:45:22;94495.50;;;22.43;100.00
11049;BME280;5577;42.706;23.160;2022-07-23T05:48:06;94495.16;;;22.64;100.00
11049;BME280;5577;42.706;23.160;2022-07-23T05:50:50;94496.13;;;22.74;98.62
11049;BME280;5577;42.706;23.160;2022-07-23T05:53:34;94499.47;;;22.81;98.82
11049;BME280;5577;42.706;23.160;2022-07-23T05:56:19;94478.94;;;22.87;100.00
11049;BME280;5577;42.706;23.160;2022-07-23T05:59:03;94481.00;;;22.99;100.00
11049;BME280;5577;42.706;23.160;2022-07-23T06:01:47;94483.91;;;23.08;100.00
11049;BME280;5577;42.706;23.160;2022-07-23T06:04:31;94482.59;;;23.16;98.92
11049;BME280;5577;42.706;23.160;2022-07-23T06:07:15;94476.78;;;23.18;100.00
11049;BME280;5577;42.706;23.160;2022-07-23T06:09:58;94477.38;;;23.45;100.00
11049;BME280;5577;42.706;23.160;2022-07-23T06:12:42;94472.78;;;23.61;100.00
11049;BME280;5577;42.706;23.160;2022-07-23T06:15:26;94474.97;;;23.66;92.70
11049;BME280;5577;42.706;23.160;2022-07-23T06:18:10;94483.03;;;23.86;94.89
11049;BME280;5577;42.706;23.160;2022-07-23T06:20:54;94488.31;;;23.93;97.46
11049;BME280;5577;42.706;23.160;2022-07-23T06:23:38;94482.25;;;24.05;95.55
11049;BME280;5577;42.706;23.160;2022-07-23T06:26:22;94391.44;;;23.56;89.48
11049;BME280;5577;42.706;23.160;2022-07-23T06:29:06;94465.84;;;24.12;90.83
11049;BME280;5577;42.706;23.160;2022-07-23T06:31:50;94473.44;;;24.33;97.69
11049;BME280;5577;42.706;23.160;2022-07-23T06:34:34;94475.88;;;24.43;91.16
11049;BME280;5577;42.706;23.160;2022-07-23T06:37:18;94480.69;;;24.52;89.49
11049;BME280;5577;42.706;23.160;2022-07-23T06:40:03;94471.78;;;24.51;90.85
11049;BME280;5577;42.706;23.160;2022-07-23T06:42:47;94474.38;;;24.71;90.87
11049;BME280;5577;42.706;23.160;2022-07-23T06:45:31;94480.47;;;24.75;88.04
11049;BME280;5577;42.706;23.160;2022-07-23T06:48:15;94470.31;;;24.79;88.79
11049;BME280;5577;42.706;23.160;2022-07-23T06:50:59;94469.03;;;24.83;88.74
11049;BME280;5577;42.706;23.160;2022-07-23T06:53:42;94474.81;;;24.98;90.83
11049;BME280;5577;42.706;23.160;2022-07-23T06:56:26;94474.44;;;25.12;84.20
11049;BME280;5577;42.706;23.160;2022-07-23T06:59:10;94478.22;;;25.15;82.30
11049;BME280;5577;42.706;23.160;2022-07-23T07:01:55;94477.25;;;25.09;81.98
11049;BME280;5577;42.706;23.160;2022-07-23T07:04:39;94475.13;;;25.29;84.58
11049;BME280;5577;42.706;23.160;2022-07-23T07:07:23;94472.56;;;25.38;81.95
11049;BME280;5577;42.706;23.160;2022-07-23T07:10:07;94478.66;;;25.54;82.27
11049;BME280;5577;42.706;23.160;2022-07-23T07:12:51;94470.88;;;25.69;82.12
11049;BME280;5577;42.706;23.160;2022-07-23T07:15:35;94472.69;;;25.72;82.75
11049;BME280;5577;42.706;23.160;2022-07-23T07:18:19;94474.53;;;25.87;82.00
11049;BME280;5577;42.706;23.160;2022-07-23T07:21:03;94460.34;;;25.96;82.73
11049;BME280;5577;42.706;23.160;2022-07-23T07:23:47;94461.22;;;26.18;81.20
11049;BME280;5577;42.706;23.160;2022-07-23T07:26:31;94448.59;;;26.24;79.99
11049;BME280;5577;42.706;23.160;2022-07-23T07:29:15;94453.97;;;26.49;82.74
11049;BME280;5577;42.706;23.160;2022-07-23T07:31:59;94460.78;;;26.53;83.13
11049;BME280;5577;42.706;23.160;2022-07-23T07:34:43;94459.72;;;26.63;80.21
11049;BME280;5577;42.706;23.160;2022-07-23T07:37:26;94456.66;;;26.74;78.28
11049;BME280;5577;42.706;23.160;2022-07-23T07:40:11;94449.44;;;26.80;80.12
11049;BME280;5577;42.706;23.160;2022-07-23T07:42:55;94464.16;;;26.91;78.10
11049;BME280;5577;42.706;23.160;2022-07-23T07:45:40;94454.94;;;27.10;76.70
11049;BME280;5577;42.706;23.160;2022-07-23T07:48:24;94452.94;;;27.02;74.11
11049;BME280;5577;42.706;23.160;2022-07-23T07:51:08;94452.53;;;27.12;75.67
11049;BME280;5577;42.706;23.160;2022-07-23T07:53:52;94448.06;;;27.18;74.92
11049;BME280;5577;42.706;23.160;2022-07-23T07:56:36;94451.94;;;27.30;74.81
11049;BME280;5577;42.706;23.160;2022-07-23T07:59:20;94447.56;;;27.32;76.41
11049;BME280;5577;42.706;23.160;2022-07-23T08:02:04;94436.78;;;27.50;74.41
11049;BME280;5577;42.706;23.160;2022-07-23T08:04:48;94444.91;;;27.72;71.33
11049;BME280;5577;42.706;23.160;2022-07-23T08:07:32;94443.41;;;27.80;70.67
11049;BME280;5577;42.706;23.160;2022-07-23T08:10:16;94444.09;;;27.93;71.89
11049;BME280;5577;42.706;23.160;2022-07-23T08:13:00;94449.72;;;27.99;69.76
11049;BME280;5577;42.706;23.160;2022-07-23T08:15:44;94448.84;;;28.20;69.44
11049;BME280;5577;42.706;23.160;2022-07-23T08:18:28;94446.59;;;28.27;71.34
11049;BME280;5577;42.706;23.160;2022-07-23T08:21:12;94440.41;;;28.36;68.14
11049;BME280;5577;42.706;23.160;2022-07-23T08:23:56;94437.00;;;28.53;66.80
11049;BME280;5577;42.706;23.160;2022-07-23T08:26:40;94429.28;;;28.70;66.44
11049;BME280;5577;42.706;23.160;2022-07-23T08:29:24;94436.81;;;28.93;67.67
11049;BME280;5577;42.706;23.160;2022-07-23T08:32:08;94433.81;;;29.09;63.34
11049;BME280;5577;42.706;23.160;2022-07-23T08:34:52;94434.41;;;29.22;61.95
11049;BME280;5577;42.706;23.160;2022-07-23T08:37:36;94435.91;;;29.32;61.71
11049;BME280;5577;42.706;23.160;2022-07-23T08:40:21;94395.06;;;29.05;62.21
11049;BME280;5577;42.706;23.160;2022-07-23T08:43:07;94430.28;;;29.35;61.36
11049;BME280;5577;42.706;23.160;2022-07-23T08:45:53;94422.34;;;29.46;60.59
11049;BME280;5577;42.706;23.160;2022-07-23T08:48:40;94426.28;;;29.63;59.80
11049;BME280;5577;42.706;23.160;2022-07-23T08:51:26;94432.91;;;29.71;58.95
11049;BME280;5577;42.706;23.160;2022-07-23T08:54:10;94421.22;;;30.03;58.58
11049;BME280;5577;42.706;23.160;2022-07-23T08:56:55;94425.91;;;30.12;57.51
11049;BME280;5577;42.706;23.160;2022-07-23T08:59:40;94424.50;;;30.26;56.08
11049;BME280;5577;42.706;23.160;2022-07-23T09:02:24;94422.97;;;30.48;57.28
11049;BME280;5577;42.706;23.160;2022-07-23T09:05:09;94430.72;;;30.73;55.29
11049;BME280;5577;42.706;23.160;2022-07-23T09:10:56;94427.25;;;31.25;52.11
11049;BME280;5577;42.706;23.160;2022-07-23T09:13:46;94425.63;;;31.33;50.61
11049;BME280;5577;42.706;23.160;2022-07-23T09:16:31;94429.13;;;31.34;50.06
11049;BME280;5577;42.706;23.160;2022-07-23T09:19:15;94425.13;;;31.78;50.42
11049;BME280;5577;42.706;23.160;2022-07-23T09:22:19;94422.44;;;32.13;51.46
11049;BME280;5577;42.706;23.160;2022-07-23T09:25:14;94417.91;;;32.44;48.75
11049;BME280;5577;42.706;23.160;2022-07-23T09:27:59;94419.41;;;32.66;46.26
11049;BME280;5577;42.706;23.160;2022-07-23T09:30:46;94417.34;;;32.81;44.89
11049;BME280;5577;42.706;23.160;2022-07-23T09:33:33;94414.13;;;32.82;44.58
11049;BME280;5577;42.706;23.160;2022-07-23T09:36:28;94409.75;;;32.70;44.81
11049;BME280;5577;42.706;23.160;2022-07-23T09:39:14;94405.44;;;32.64;43.61
11049;BME280;5577;42.706;23.160;2022-07-23T09:42:16;94401.38;;;32.59;39.53
11049;BME280;5577;42.706;23.160;2022-07-23T09:45:01;94411.25;;;32.71;40.89
11049;BME280;5577;42.706;23.160;2022-07-23T09:47:46;94399.22;;;32.83;37.17
11049;BME280;5577;42.706;23.160;2022-07-23T09:50:30;94400.66;;;33.04;36.49
11049;BME280;5577;42.706;23.160;2022-07-23T09:53:24;94389.00;;;33.35;37.42
11049;BME280;5577;42.706;23.160;2022-07-23T09:56:11;94397.28;;;33.40;35.78
11049;BME280;5577;42.706;23.160;2022-07-23T09:58:57;94392.97;;;33.34;36.25
11049;BME280;5577;42.706;23.160;2022-07-23T10:01:53;94380.28;;;33.36;36.53
11049;BME280;5577;42.706;23.160;2022-07-23T10:04:39;94386.19;;;33.55;36.36
11049;BME280;5577;42.706;23.160;2022-07-23T10:07:25;94385.53;;;33.34;35.13
11049;BME280;5577;42.706;23.160;2022-07-23T10:10:11;94383.25;;;33.64;35.29
11049;BME280;5577;42.706;23.160;2022-07-23T10:12:56;94377.19;;;33.54;33.82
11049;BME280;5577;42.706;23.160;2022-07-23T10:15:59;94374.28;;;33.63;32.42
11049;BME280;5577;42.706;23.160;2022-07-23T10:18:43;94367.31;;;34.04;32.13
11049;BME280;5577;42.706;23.160;2022-07-23T10:21:38;94370.63;;;34.08;30.06
11049;BME280;5577;42.706;23.160;2022-07-23T10:34:24;94367.22;;;34.88;29.08
11049;BME280;5577;42.706;23.160;2022-07-23T10:37:16;94366.69;;;34.79;30.60
11049;BME280;5577;42.706;23.160;2022-07-23T10:40:13;94357.41;;;34.71;30.46
11049;BME280;5577;42.706;23.160;2022-07-23T10:42:59;94357.25;;;34.91;29.77
11049;BME280;5577;42.706;23.160;2022-07-23T10:45:45;94350.50;;;34.97;29.84
11049;BME280;5577;42.706;23.160;2022-07-23T10:48:29;94351.91;;;34.71;29.19
11049;BME280;5577;42.706;23.160;2022-07-23T10:51:15;94353.25;;;35.09;28.06
11049;BME280;5577;42.706;23.160;2022-07-23T10:54:00;94350.59;;;35.42;27.88
11049;BME280;5577;42.706;23.160;2022-07-23T11:02:57;94337.03;;;35.22;26.25
11049;BME280;5577;42.706;23.160;2022-07-23T11:05:46;94341.03;;;35.59;28.91
11049;BME280;5577;42.706;23.160;2022-07-23T11:08:30;94337.28;;;35.73;24.71
11049;BME280;5577;42.706;23.160;2022-07-23T11:11:15;94319.28;;;35.39;24.31
11049;BME280;5577;42.706;23.160;2022-07-23T11:13:59;94325.25;;;35.21;25.96
11049;BME280;5577;42.706;23.160;2022-07-23T11:16:46;94315.78;;;35.50;26.12
11049;BME280;5577;42.706;23.160;2022-07-23T11:22:58;94316.25;;;35.65;28.09
11049;BME280;5577;42.706;23.160;2022-07-23T11:25:42;94307.47;;;35.83;25.30
11049;BME280;5577;42.706;23.160;2022-07-23T11:28:28;94295.13;;;36.11;25.91
11049;BME280;5577;42.706;23.160;2022-07-23T11:31:18;94314.53;;;36.52;25.24
11049;BME280;5577;42.706;23.160;2022-07-23T11:40:17;94295.13;;;36.68;25.43
11049;BME280;5577;42.706;23.160;2022-07-23T11:43:07;94290.31;;;37.20;24.95
11049;BME280;5577;42.706;23.160;2022-07-23T11:45:54;94291.06;;;37.51;24.40
11049;BME280;5577;42.706;23.160;2022-07-23T11:48:40;94292.88;;;37.42;24.06
11049;BME280;5577;42.706;23.160;2022-07-23T11:51:27;94293.16;;;36.63;22.98
11049;BME280;5577;42.706;23.160;2022-07-23T11:54:11;94283.81;;;36.26;23.17
11049;BME280;5577;42.706;23.160;2022-07-23T11:56:59;94282.78;;;36.29;23.59
11049;BME280;5577;42.706;23.160;2022-07-23T11:59:46;94286.59;;;36.15;22.57
11049;BME280;5577;42.706;23.160;2022-07-23T12:02:30;94283.81;;;36.31;23.14
11049;BME280;5577;42.706;23.160;2022-07-23T12:05:16;94280.25;;;36.88;23.54
11049;BME280;5577;42.706;23.160;2022-07-23T12:08:04;94277.88;;;37.03;22.48
11049;BME280;5577;42.706;23.160;2022-07-23T12:10:49;94274.78;;;36.77;22.62
11049;BME280;5577;42.706;23.160;2022-07-23T12:13:33;94273.59;;;36.61;23.25
11049;BME280;5577;42.706;23.160;2022-07-23T12:16:18;94256.88;;;36.94;23.04
11049;BME280;5577;42.706;23.160;2022-07-23T12:19:02;94271.25;;;37.47;23.36
11049;BME280;5577;42.706;23.160;2022-07-23T12:21:46;94265.94;;;38.02;23.02
11049;BME280;5577;42.706;23.160;2022-07-23T12:24:30;94264.59;;;38.88;23.50
11049;BME280;5577;42.706;23.160;2022-07-23T12:27:14;94228.13;;;39.21;24.67
11049;BME280;5577;42.706;23.160;2022-07-23T12:29:58;94262.00;;;39.72;22.26
11049;BME280;5577;42.706;23.160;2022-07-23T12:32:44;94258.59;;;39.66;21.14
11049;BME280;5577;42.706;23.160;2022-07-23T12:35:32;94253.13;;;39.73;22.05
11049;BME280;5577;42.706;23.160;2022-07-23T12:38:18;94237.06;;;39.27;21.43
11049;BME280;5577;42.706;23.160;2022-07-23T12:41:03;94244.44;;;39.06;21.01
11049;BME280;5577;42.706;23.160;2022-07-23T12:43:48;94240.47;;;38.70;21.80
11049;BME280;5577;42.706;23.160;2022-07-23T12:46:33;94249.94;;;38.19;21.41
11049;BME280;5577;42.706;23.160;2022-07-23T12:49:27;94200.09;;;38.25;22.24
11049;BME280;5577;42.706;23.160;2022-07-23T12:52:15;94231.31;;;38.38;21.13
11049;BME280;5577;42.706;23.160;2022-07-23T12:54:59;94232.81;;;38.21;21.16
11049;BME280;5577;42.706;23.160;2022-07-23T12:57:47;94233.94;;;38.12;20.41
11049;BME280;5577;42.706;23.160;2022-07-23T13:00:32;94237.81;;;37.80;21.47
11049;BME280;5577;42.706;23.160;2022-07-23T13:03:23;94230.56;;;37.77;21.45
11049;BME280;5577;42.706;23.160;2022-07-23T13:06:10;94225.31;;;37.43;20.91
11049;BME280;5577;42.706;23.160;2022-07-23T13:08:54;94214.56;;;37.70;22.69
11049;BME280;5577;42.706;23.160;2022-07-23T13:11:39;94214.78;;;38.14;22.58
11049;BME280;5577;42.706;23.160;2022-07-23T13:14:24;94186.38;;;38.14;20.51
11049;BME280;5577;42.706;23.160;2022-07-23T13:17:09;94223.91;;;38.46;20.48
11049;BME280;5577;42.706;23.160;2022-07-23T13:19:53;94225.78;;;38.38;20.16
11049;BME280;5577;42.706;23.160;2022-07-23T13:22:36;94223.91;;;37.61;19.80
11049;BME280;5577;42.706;23.160;2022-07-23T13:25:20;94220.16;;;37.59;20.12
11049;BME280;5577;42.706;23.160;2022-07-23T13:28:04;94228.47;;;36.99;20.34
11049;BME280;5577;42.706;23.160;2022-07-23T13:30:49;94180.06;;;36.98;20.53
11049;BME280;5577;42.706;23.160;2022-07-23T13:33:34;94201.97;;;37.20;21.22
11049;BME280;5577;42.706;23.160;2022-07-23T13:36:18;94202.03;;;37.09;21.22
11049;BME280;5577;42.706;23.160;2022-07-23T13:39:02;94205.84;;;36.71;20.30
11049;BME280;5577;42.706;23.160;2022-07-23T13:41:46;94205.56;;;36.34;20.12
11049;BME280;5577;42.706;23.160;2022-07-23T13:44:30;94204.31;;;36.35;21.33
11049;BME280;5577;42.706;23.160;2022-07-23T13:47:14;94201.63;;;36.13;20.16
11049;BME280;5577;42.706;23.160;2022-07-23T13:49:58;94185.69;;;36.47;20.70
11049;BME280;5577;42.706;23.160;2022-07-23T13:52:42;94201.72;;;36.48;20.47
11049;BME280;5577;42.706;23.160;2022-07-23T13:55:26;94186.88;;;36.57;20.80
11049;BME280;5577;42.706;23.160;2022-07-23T13:58:11;94195.59;;;36.61;20.12
11049;BME280;5577;42.706;23.160;2022-07-23T14:00:56;94194.31;;;36.32;20.86
11049;BME280;5577;42.706;23.160;2022-07-23T14:03:40;94196.47;;;36.45;22.06
11049;BME280;5577;42.706;23.160;2022-07-23T14:06:24;94192.50;;;36.81;21.64
11049;BME280;5577;42.706;23.160;2022-07-23T14:09:08;94190.81;;;36.67;21.43
11049;BME280;5577;42.706;23.160;2022-07-23T14:11:52;94157.28;;;36.17;21.52
11049;BME280;5577;42.706;23.160;2022-07-23T14:14:36;94175.69;;;36.44;26.32
11049;BME280;5577;42.706;23.160;2022-07-23T14:17:20;94189.44;;;36.03;22.56
11049;BME280;5577;42.706;23.160;2022-07-23T14:20:06;94188.78;;;35.70;22.38
11049;BME280;5577;42.706;23.160;2022-07-23T14:22:50;94190.00;;;35.91;23.97
11049;BME280;5577;42.706;23.160;2022-07-23T14:25:35;94183.81;;;36.20;25.31
11049;BME280;5577;42.706;23.160;2022-07-23T14:28:19;94176.78;;;36.19;22.59
11049;BME280;5577;42.706;23.160;2022-07-23T14:31:03;94172.69;;;36.42;24.33
11049;BME280;5577;42.706;23.160;2022-07-23T14:33:48;94172.81;;;36.60;27.36
11049;BME280;5577;42.706;23.160;2022-07-23T14:36:32;94181.03;;;36.31;22.85
11049;BME280;5577;42.706;23.160;2022-07-23T14:39:16;94176.16;;;36.48;24.15
11049;BME280;5577;42.706;23.160;2022-07-23T14:42:00;94169.38;;;36.49;22.27
11049;BME280;5577;42.706;23.160;2022-07-23T14:44:45;94171.78;;;36.63;23.15
11049;BME280;5577;42.706;23.160;2022-07-23T14:47:29;94169.16;;;36.41;22.71
11049;BME280;5577;42.706;23.160;2022-07-23T14:50:14;94152.25;;;36.21;23.10
11049;BME280;5577;42.706;23.160;2022-07-23T14:52:58;94151.38;;;36.42;23.32
11049;BME280;5577;42.706;23.160;2022-07-23T14:55:42;94159.09;;;36.49;22.12